Texelhors, Netherlands

3:01 AM CET on November 27, 2014 (GMT +0100)
Acta Marine HQ | Change Station
CLOSE
Current Station
Personal Weather Station
Location: Den Helder, NOORD-HOLLAND
Elevation: 10 ft
Nearby Weather Stations

Elev 10 ft 52.95 °N, 4.78 °E | Updated 19 seconds ago

Overcast
Overcast
45.3 °F
Feels Like 45 °F
N
0.0
Wind Variable Wind from ESE
Gusts 0.0 mph

Today
High -- | Low -- °F
--% Chance of Precip.
Yesterday
High -- | Low -- °F
Precip. -- in
8:25 AM 4:31 PM
Waxing Crescent, 24% visible
Pressure 29.80 in
Visibility 1.0 miles
Clouds Overcast 100 ft
Windchill 45 °F
Dew Point 45 °F
Humidity 97%
Rainfall 0.00 in
Snow Depth Not available.
UV 0.0 out of 12
Pollen Not available.
Air Quality Not available.
Flu Activity Not available.
METAR EHKD 270155Z AUTO 13008KT 1600 R21/1100 BR OVC001 05/05 Q1009 RED

More Conditions Fewer Conditions

Pressure 29.80 in
Visibility 1.0 miles
Clouds Overcast 100 ft
Windchill 45 °F
Dew Point 45 °F
Humidity 97%
Rainfall 0.00 in
Snow Depth Not available.
UV 0.0 out of 12
Pollen Not available.
Air Quality Not available.
Flu Activity Not available.
METAR EHKD 270155Z AUTO 13008KT 1600 R21/1100 BR OVC001 05/05 Q1009 RED

More Conditions Fewer Conditions

10-Day Weather Forecast

Almanac

Astronomy

Nov. 27, 2014 Rise Set
Actual Time
Civil Twilight
Nautical Twilight
Astronomical Twilight
Moon
Length of Visible Light
Length of Day
Tomorrow will be .
, % of the Moon is Illuminated

Today's Extremes

Country Highs Country Lows

Community

WunderPhotos

Upload Photos

1,773,942 photos uploaded!

WunderBlogs® & News

Nearby

Air Quality

  Air Quality AQ Index Pollutant
Not available.

Snow Depth

Station Depth Elevation

Earthquake Activity

City Distance Mag. Time & Date
Minimum magnitude displayed is 2.5.

Coastal Water Temperatures

Place Temperature

Nearby Weather Stations